createdAt,value
2023-02-25T00:08:24.999Z,86.34
2023-02-25T00:18:46.984Z,85.72
2023-02-25T00:29:08.502Z,86.11
2023-02-25T00:39:41.936Z,85.94
2023-02-25T00:50:04.391Z,86.11
2023-02-25T01:00:25.746Z,85.49
2023-02-25T01:10:47.659Z,86.25
2023-02-25T01:21:14.756Z,84.88
2023-02-25T01:31:38.168Z,86.22
2023-02-25T01:42:02.369Z,85.84
2023-02-25T01:52:24.773Z,85.98
2023-02-25T02:02:47.595Z,85.00
2023-02-25T02:13:09.276Z,85.41
2023-02-25T02:23:49.606Z,84.86
2023-02-25T02:34:17.020Z,84.94
2023-02-25T02:44:44.382Z,84.38
2023-02-25T02:55:13.204Z,84.71
2023-02-25T03:05:36.623Z,85.72
2023-02-25T03:15:59.916Z,85.60
2023-02-25T03:26:21.646Z,85.44
2023-02-25T03:36:46.553Z,87.08
2023-02-25T03:47:09.019Z,87.40
2023-02-25T03:57:40.606Z,85.31
2023-02-25T04:08:02.297Z,81.95
2023-02-25T04:18:24.932Z,81.90
2023-02-25T04:28:46.322Z,81.90
2023-02-25T04:39:07.749Z,82.10
2023-02-25T04:49:29.139Z,82.02
2023-02-25T04:59:50.498Z,81.10
2023-02-25T05:10:13.118Z,80.00
2023-02-25T05:20:34.670Z,79.59
2023-02-25T05:30:56.821Z,80.30
2023-02-25T05:41:18.214Z,79.62
2023-02-25T05:51:39.641Z,81.57
2023-02-25T06:02:01.144Z,82.12
2023-02-25T06:12:22.563Z,80.35
2023-02-25T06:22:43.898Z,80.77
2023-02-25T06:33:05.334Z,81.29
2023-02-25T06:43:26.764Z,80.98
2023-02-25T06:53:48.587Z,81.78
2023-02-25T07:04:14.797Z,81.18
2023-02-25T07:14:36.242Z,81.08
2023-02-25T07:24:57.646Z,79.63
2023-02-25T07:35:19.057Z,78.44
2023-02-25T07:45:41.573Z,76.03
2023-02-25T07:56:02.963Z,74.29
2023-02-25T08:06:25.074Z,76.08
2023-02-25T08:16:46.430Z,73.98
2023-02-25T08:27:10.722Z,72.56
2023-02-25T08:37:33.280Z,72.14
2023-02-25T08:47:54.669Z,71.91
2023-02-25T08:58:16.013Z,68.63
2023-02-25T09:08:37.375Z,69.13
2023-02-25T09:18:58.860Z,68.13
2023-02-25T09:29:20.239Z,67.21
2023-02-25T09:39:43.547Z,67.97
2023-02-25T09:50:06.647Z,68.69
2023-02-25T10:00:28.429Z,71.14
2023-02-25T10:11:10.201Z,69.87
2023-02-25T10:21:50.608Z,66.95
2023-02-25T10:32:16.025Z,68.15
2023-02-25T10:42:37.951Z,66.00
2023-02-25T10:53:03.880Z,67.84
2023-02-25T11:03:27.778Z,67.42
2023-02-25T11:14:03.428Z,64.35
2023-02-25T11:24:33.400Z,66.84
2023-02-25T11:35:02.695Z,65.76
2023-02-25T11:45:24.072Z,66.59
2023-02-25T11:55:45.445Z,65.81
2023-02-25T12:06:09.799Z,65.70
2023-02-25T12:16:50.231Z,68.13
2023-02-25T12:27:27.574Z,68.88
2023-02-25T12:38:07.757Z,66.19
2023-02-25T12:48:29.093Z,66.14
2023-02-25T12:59:05.675Z,64.86
2023-02-25T13:09:49.672Z,65.24
2023-02-25T13:20:23.401Z,63.27
2023-02-25T13:30:50.949Z,66.40
2023-02-25T13:41:12.524Z,65.60
2023-02-25T13:51:49.164Z,65.04
2023-02-25T14:02:25.970Z,65.28
2023-02-25T14:12:47.375Z,63.85
2023-02-25T14:23:12.820Z,64.32
2023-02-25T14:33:54.923Z,63.98
2023-02-25T14:44:20.354Z,64.99
2023-02-25T14:55:00.625Z,64.42
2023-02-25T15:05:28.721Z,65.92
2023-02-25T15:16:13.521Z,65.22
2023-02-25T15:26:43.201Z,64.60
2023-02-25T15:37:25.550Z,63.58
2023-02-25T15:47:47.551Z,63.28
2023-02-25T15:58:32.170Z,64.85
2023-02-25T16:08:53.503Z,63.50
2023-02-25T16:19:17.143Z,65.36
2023-02-25T16:29:44.673Z,66.19
2023-02-25T16:40:12.591Z,64.98
2023-02-25T16:50:35.140Z,65.34
2023-02-25T17:00:58.283Z,65.97
2023-02-25T17:11:22.625Z,66.85
2023-02-25T17:21:46.476Z,74.47
2023-02-25T17:32:22.026Z,76.08
2023-02-25T17:42:43.909Z,77.81
2023-02-25T17:53:05.440Z,77.93
2023-02-25T18:03:30.521Z,78.05
2023-02-25T18:13:51.921Z,76.95
2023-02-25T18:24:27.995Z,77.28
2023-02-25T18:34:49.402Z,77.49
2023-02-25T18:45:15.138Z,77.93
2023-02-25T18:55:36.505Z,77.95
2023-02-25T19:05:57.914Z,77.77
2023-02-25T19:16:19.428Z,78.78
2023-02-25T19:26:41.675Z,79.39
2023-02-25T19:37:03.050Z,78.96
2023-02-25T19:47:24.587Z,79.15
2023-02-25T19:57:46.680Z,79.40
2023-02-25T20:08:08.425Z,79.14
2023-02-25T20:18:29.848Z,76.58
2023-02-25T20:28:52.165Z,74.17
2023-02-25T20:39:28.680Z,73.29
2023-02-25T20:49:50.204Z,72.70
2023-02-25T21:00:15.073Z,73.54
2023-02-25T21:10:37.667Z,73.65
2023-02-25T21:20:59.657Z,73.16
2023-02-25T21:31:21.057Z,72.83
2023-02-25T21:41:44.556Z,73.27
2023-02-25T21:52:06.517Z,74.40
2023-02-25T22:02:29.754Z,73.25
2023-02-25T22:12:53.712Z,72.96
2023-02-25T22:23:15.153Z,73.86
2023-02-25T22:33:36.705Z,73.72
2023-02-25T22:43:58.662Z,72.94
2023-02-25T22:54:20.124Z,72.55
2023-02-25T23:04:41.466Z,72.13
2023-02-25T23:15:03.230Z,72.30
2023-02-25T23:25:24.584Z,71.67
2023-02-25T23:35:46.025Z,71.61
2023-02-25T23:46:07.439Z,70.12
2023-02-25T23:56:30.768Z,71.19
